Chillan, General Bernardo O`Higgins Airport (SCCH)

NameGeneral Bernardo O`Higgins Airport
CityChillan
CountryChile
ICAOSCCH
IATAYAI
Altitude151 m
CoordinatesGoogle Map
Live Air TrafficLiveATC.net
METARSCCH 180100Z AUTO 23006KT 9999 ///////// 25/07 Q1015
2019-01-18 01:00:00 Wind: Southwest (230°) 3.09 m/s - Visibility: > 10000 m - Temperature: 25 °C - Dew point: 7 °C - Humidity: 31.7% - Pressure: 1015 hPa
Statistics

The table below shows the detailed information of all flights to/from Chillan, General Bernardo O`Higgins Airport (SCCH).